Terminal Aerodrome Forecast
Issued by NWS

Home | Current Version | Previous Version | Text Only | Print | Product List | Glossary On
Versions: 1 2 3 4 5 6 7 8 9 10 11 12 13 14 15 16 17 18 19 20 21
531
FTUS41 KOKX 080831 AAA
TAFSWF
TAF AMD
KSWF 080831Z 0809/0912 06010KT P6SM SCT020 OVC045
     FM081600 03008G15KT 6SM -SN SCT015 OVC025
     FM081800 02008G15KT 3SM -SN OVC015
     FM082200 VRB04KT P6SM BKN015
     FM090200 VRB03KT P6SM BKN025
      AMD NOT SKED=

USA.gov is the U.S. government's official web portal to all federal, state and local government web resources and services.